Cinderella 1 — SBLK — position and weather

sailwx.info

Track history (hours):
 
Tides and Currents Weather Stations Pressure Air Temp Water Temp Dewpoint Dewpoint Depression Visibility Wind Speed Wind Dir Waves Ship Positions

Cinderella 1

Last reported at 2014-Sep-20 21:33 UTC. Time now 2014-Sep-20 22:09 UTC.
Position N 59°20' E 018°05'.

Length 42 m; draft 1.1 m.

Type: Passenger vessel. MMSI: 265524530.

Date/timePositionNaut miles runAvg speedWind from/ knotsBaromVisibWave heightAir tempDewpointWater temp
2014-Sep-20 21:33N 59°20' E 018°05'0 0.0
2014-Sep-20 20:33N 59°20' E 018°05'0 0.0
2014-Sep-20 19:33N 59°20' E 018°05'4 0.8
2014-Sep-20 14:24N 59°20' E 018°13'2 2.6
2014-Sep-20 13:31N 59°19' E 018°09'1 0.2
2014-Sep-20 08:22N 59°20' E 018°11'3 1.8
2014-Sep-20 06:33N 59°20' E 018°05'0 0.0
2014-Sep-20 05:33N 59°20' E 018°05'0 0.0
2014-Sep-20 04:33N 59°20' E 018°05'0 0.0
2014-Sep-20 03:33N 59°20' E 018°05'0 0.0
2014-Sep-20 02:33N 59°20' E 018°05'0 0.0
2014-Sep-20 01:33N 59°20' E 018°05'0 0.0
2014-Sep-20 00:33N 59°20' E 018°05'0 0.0
2014-Sep-19 23:33N 59°20' E 018°05'0 0.0
2014-Sep-19 22:33N 59°20' E 018°05'0 0.0
2014-Sep-19 21:33N 59°20' E 018°05'0 0.0
2014-Sep-19 20:33N 59°20' E 018°05'0 0.1
2014-Sep-19 15:33N 59°20' E 018°05'0 0.4
2014-Sep-19 14:33N 59°20' E 018°05'0 0.0
2014-Sep-19 13:33N 59°20' E 018°05'0 0.0
2014-Sep-19 12:33N 59°20' E 018°05'0 0.0
2014-Sep-19 11:34N 59°20' E 018°05'0 0.0
2014-Sep-19 10:33N 59°20' E 018°05'0 0.0
2014-Sep-19 09:34N 59°20' E 018°05'0 0.0
2014-Sep-19 08:34N 59°20' E 018°05'1 0.6
2014-Sep-19 06:33N 59°19' E 018°07'1 1.3
2014-Sep-19 05:34N 59°20' E 018°05'0 0.0
2014-Sep-19 04:34N 59°20' E 018°05'0 0.0
2014-Sep-19 03:33N 59°20' E 018°05'0 0.0
2014-Sep-19 02:33N 59°20' E 018°05'0 0.0
2014-Sep-19 01:34N 59°20' E 018°05'0 0.0
2014-Sep-19 00:33N 59°20' E 018°05'0 0.0
2014-Sep-18 23:33N 59°20' E 018°05'0 0.0
2014-Sep-18 22:34N 59°20' E 018°05'0 0.0
2014-Sep-18 21:33N 59°20' E 018°05'0 0.0
2014-Sep-18 20:34N 59°20' E 018°05'0 0.0
2014-Sep-18 19:33N 59°20' E 018°05'0 0.0
2014-Sep-18 18:34N 59°20' E 018°05'0 0.0
2014-Sep-18 17:33N 59°20' E 018°05'0 0.0
2014-Sep-18 16:33N 59°20' E 018°05'0 0.0
2014-Sep-18 15:33N 59°20' E 018°05'0 0.0
2014-Sep-18 14:34N 59°20' E 018°05'0 0.0
2014-Sep-18 13:33N 59°20' E 018°05'0 0.0
2014-Sep-18 12:34N 59°20' E 018°05'0 0.0
2014-Sep-18 11:28N 59°20' E 018°05'0 0.0
2014-Sep-18 10:34N 59°20' E 018°05'0 0.0
2014-Sep-18 09:34N 59°20' E 018°05'0 0.0
2014-Sep-18 08:33N 59°20' E 018°05'1 0.6
2014-Sep-18 06:24N 59°19' E 018°07'1 1.5
2014-Sep-18 05:33N 59°20' E 018°05'0 0.0
2014-Sep-18 04:33N 59°20' E 018°05'0 0.0
2014-Sep-18 03:34N 59°20' E 018°05'0 0.0
2014-Sep-18 02:33N 59°20' E 018°05'0 0.0
2014-Sep-18 01:34N 59°20' E 018°05'0 0.0
2014-Sep-18 00:34N 59°20' E 018°05'0 0.0
2014-Sep-17 23:34N 59°20' E 018°05'0 0.0
2014-Sep-17 22:34N 59°20' E 018°05'0 0.0
2014-Sep-17 21:33N 59°20' E 018°05'0 0.0
2014-Sep-17 20:33N 59°20' E 018°05'0 0.0
2014-Sep-17 19:33N 59°20' E 018°05'0 0.0
2014-Sep-17 18:34N 59°20' E 018°05'0 0.0
2014-Sep-17 17:34N 59°20' E 018°05'0 0.0
2014-Sep-17 16:33N 59°20' E 018°05'0 0.0
2014-Sep-17 15:33N 59°20' E 018°05'0 0.0
2014-Sep-17 14:33N 59°20' E 018°05'0 0.0
2014-Sep-17 13:33N 59°20' E 018°05'0 0.0
2014-Sep-17 12:32N 59°20' E 018°05'0 0.0
2014-Sep-17 11:33N 59°20' E 018°05'0 0.0
2014-Sep-17 10:34N 59°20' E 018°05'0 0.0
2014-Sep-17 09:33N 59°20' E 018°05'0 0.0
2014-Sep-17 08:33N 59°20' E 018°05'0 0.0
2014-Sep-17 07:32N 59°20' E 018°05'0 0.0
2014-Sep-17 06:33N 59°20' E 018°05'0 0.0
2014-Sep-17 05:34N 59°20' E 018°05'0 0.0
2014-Sep-17 04:33N 59°20' E 018°05'0 0.0
2014-Sep-17 03:34N 59°20' E 018°05'0 0.0
2014-Sep-17 02:33N 59°20' E 018°05'0 0.0
2014-Sep-17 01:33N 59°20' E 018°05'0 0.0
2014-Sep-17 00:33N 59°20' E 018°05'0 0.0
2014-Sep-16 23:34N 59°20' E 018°05'0 0.0
2014-Sep-16 22:33N 59°20' E 018°05'0 0.0
2014-Sep-16 21:33N 59°20' E 018°05'0 0.0
2014-Sep-16 20:34N 59°20' E 018°05'0 0.0
2014-Sep-16 19:33N 59°20' E 018°05'0 0.0
2014-Sep-16 18:33N 59°20' E 018°05'0 0.0
2014-Sep-16 17:34N 59°20' E 018°05'0 0.0
2014-Sep-16 16:33N 59°20' E 018°05'0 0.0
2014-Sep-16 15:34N 59°20' E 018°05'0 0.0
2014-Sep-16 14:30N 59°20' E 018°05'0 0.0
2014-Sep-16 13:33N 59°20' E 018°05'0 0.0
2014-Sep-16 12:32N 59°20' E 018°05'0 0.0
2014-Sep-16 11:33N 59°20' E 018°05'0 0.0
2014-Sep-16 10:33N 59°20' E 018°05'0 0.0
2014-Sep-16 09:24N 59°20' E 018°05'0 0.0
2014-Sep-16 08:33N 59°20' E 018°05'0 0.0
2014-Sep-16 07:34N 59°20' E 018°05'0 0.0
2014-Sep-16 06:33N 59°20' E 018°05'0 0.0
2014-Sep-16 05:33N 59°20' E 018°05'0 0.0
2014-Sep-16 04:33N 59°20' E 018°05'0 0.0
2014-Sep-16 03:33N 59°20' E 018°05'0 0.0
2014-Sep-16 02:34N 59°20' E 018°05'0 0.0
2014-Sep-16 01:33N 59°20' E 018°05'0 0.0
2014-Sep-16 00:33N 59°20' E 018°05'0 0.0
2014-Sep-15 23:33N 59°20' E 018°05'0 0.0
2014-Sep-15 22:34N 59°20' E 018°05'0 0.0
2014-Sep-15 21:33N 59°20' E 018°05'0 0.0
2014-Sep-15 20:34N 59°20' E 018°05'0 0.0
2014-Sep-15 19:33N 59°20' E 018°05'0 0.0
2014-Sep-15 18:33N 59°20' E 018°05'0 0.0
2014-Sep-15 17:34N 59°20' E 018°05'0 0.0
2014-Sep-15 16:34N 59°20' E 018°05'0 0.0
2014-Sep-15 15:34N 59°20' E 018°05'0 0.0
2014-Sep-15 14:33N 59°20' E 018°05'1 0.2
2014-Sep-15 07:10N 59°19' E 018°07'1 2.2
2014-Sep-15 06:34N 59°20' E 018°05'0 0.0
2014-Sep-15 05:33N 59°20' E 018°05'0 0.0
2014-Sep-15 04:34N 59°20' E 018°05'0 0.0
2014-Sep-15 03:34N 59°20' E 018°05'0 0.0
2014-Sep-15 02:33N 59°20' E 018°05'0 0.0
2014-Sep-15 01:34N 59°20' E 018°05'0 0.0
2014-Sep-15 00:34N 59°20' E 018°05'0 0.0
2014-Sep-14 23:33N 59°20' E 018°05'0 0.0
2014-Sep-14 22:34N 59°20' E 018°05'0 0.0
2014-Sep-14 21:33N 59°20' E 018°05'0 0.0
2014-Sep-14 20:34N 59°20' E 018°05'0 0.0
2014-Sep-14 19:33N 59°20' E 018°05'7 6.6
2014-Sep-14 18:31N 59°23' E 018°17'3 0.8
2014-Sep-14 14:22N 59°20' E 018°12'3 3.0
2014-Sep-14 13:32N 59°19' E 018°08'2 0.4
2014-Sep-14 08:22N 59°20' E 018°11'3 4.2
2014-Sep-14 07:33N 59°20' E 018°05'0 0.0
2014-Sep-14 06:33N 59°20' E 018°05'0 0.0
2014-Sep-14 05:33N 59°20' E 018°05'0 0.0
2014-Sep-14 04:33N 59°20' E 018°05'0 0.0
2014-Sep-14 03:33N 59°20' E 018°05'0 0.0
2014-Sep-14 02:33N 59°20' E 018°05'0 0.0
2014-Sep-14 01:33N 59°20' E 018°05'0 0.0
2014-Sep-13 21:33N 59°20' E 018°05'0 0.0
2014-Sep-13 20:33N 59°20' E 018°05'0 0.0
2014-Sep-13 19:33N 59°20' E 018°05'7 6.5
2014-Sep-13 18:30N 59°23' E 018°17'5 1.1
2014-Sep-13 14:18N 59°19' E 018°10'1 1.1
2014-Sep-13 13:29N 59°19' E 018°09'1 0.3
2014-Sep-13 08:22N 59°20' E 018°11'3 4.2
2014-Sep-13 07:33N 59°20' E 018°05'0 0.0
2014-Sep-13 06:33N 59°20' E 018°05'0 0.0
2014-Sep-13 05:33N 59°20' E 018°05'0 0.0
2014-Sep-13 04:34N 59°20' E 018°05'0 0.0
2014-Sep-13 03:34N 59°20' E 018°05'0 0.0
2014-Sep-13 02:34N 59°20' E 018°05'0 0.0
2014-Sep-13 01:34N 59°20' E 018°05'0 0.0
2014-Sep-13 00:34N 59°20' E 018°05'0 0.0
2014-Sep-12 23:34N 59°20' E 018°05'0 0.0
2014-Sep-12 22:33N 59°20' E 018°05'0 0.0
2014-Sep-12 21:33N 59°20' E 018°05'0 0.0
2014-Sep-12 20:34N 59°20' E 018°05'8 1.8
2014-Sep-12 16:08N 59°23' E 018°19'813.3
2014-Sep-12 15:33N 59°20' E 018°05'3 3.0
2014-Sep-12 14:33N 59°20' E 018°11'0 0.0
2014-Sep-12 10:21N 59°20' E 018°11'3 4.1
2014-Sep-12 09:33N 59°20' E 018°05'0 0.0
2014-Sep-12 08:33N 59°20' E 018°05'0 0.0
2014-Sep-12 07:33N 59°20' E 018°05'0 0.0
2014-Sep-12 06:33N 59°20' E 018°05'0 0.0
2014-Sep-12 05:33N 59°20' E 018°05'0 0.0
2014-Sep-12 04:33N 59°20' E 018°05'0 0.0
2014-Sep-12 03:33N 59°20' E 018°05'0 0.0
2014-Sep-12 02:33N 59°20' E 018°05'0 0.0
2014-Sep-12 01:33N 59°20' E 018°05'0 0.0
2014-Sep-12 00:33N 59°20' E 018°05'0 0.0
2014-Sep-11 23:33N 59°20' E 018°05'0 0.0
2014-Sep-11 22:33N 59°20' E 018°05'0 0.0
2014-Sep-11 21:33N 59°20' E 018°05'0 0.0
2014-Sep-11 20:33N 59°20' E 018°05'3 2.8
2014-Sep-11 19:33N 59°19' E 018°10'5 1.6
2014-Sep-11 16:06N 59°23' E 018°19'713.5
2014-Sep-11 15:33N 59°20' E 018°05'7 6.0
2014-Sep-11 14:22N 59°23' E 018°18'4 1.1
2014-Sep-11 10:23N 59°20' E 018°11'3 3.9
2014-Sep-11 09:30N 59°20' E 018°05'0 0.0
2014-Sep-11 08:32N 59°20' E 018°05'0 0.0
2014-Sep-11 07:31N 59°20' E 018°05'0 0.0
2014-Sep-11 06:33N 59°20' E 018°05'0 0.0
2014-Sep-11 05:33N 59°20' E 018°05'0 0.0
2014-Sep-11 04:33N 59°20' E 018°05'0 0.0
2014-Sep-11 03:34N 59°20' E 018°05'0 0.0
2014-Sep-11 02:33N 59°20' E 018°05'0 0.0
2014-Sep-11 01:34N 59°20' E 018°05'0 0.0
2014-Sep-11 00:34N 59°20' E 018°05'0 0.0
2014-Sep-10 23:33N 59°20' E 018°05'0 0.0
2014-Sep-10 22:33N 59°20' E 018°05'0 0.0
2014-Sep-10 21:33N 59°20' E 018°05'  
Track history (hours):
 
Tides and Currents Weather Stations Pressure Air Temp Water Temp Dewpoint Dewpoint Depression Visibility Wind Speed Wind Dir Waves Ship Positions

Cinderella 1

Last reported at 2014-Sep-20 21:33 UTC. Time now 2014-Sep-20 22:09 UTC.
Position N 59°20' E 018°05'.

Length 42 m; draft 1.1 m.

Type: Passenger vessel. MMSI: 265524530.

Date/timePositionNaut miles runAvg speedWind from/ knotsBaromVisibWave heightAir tempDewpointWater temp
2014-Sep-20 21:33N 59°20' E 018°05'0 0.0
2014-Sep-20 20:33N 59°20' E 018°05'0 0.0
2014-Sep-20 19:33N 59°20' E 018°05'4 0.8
2014-Sep-20 14:24N 59°20' E 018°13'2 2.6
2014-Sep-20 13:31N 59°19' E 018°09'1 0.2
2014-Sep-20 08:22N 59°20' E 018°11'3 1.8
2014-Sep-20 06:33N 59°20' E 018°05'0 0.0
2014-Sep-20 05:33N 59°20' E 018°05'0 0.0
2014-Sep-20 04:33N 59°20' E 018°05'0 0.0
2014-Sep-20 03:33N 59°20' E 018°05'0 0.0
2014-Sep-20 02:33N 59°20' E 018°05'0 0.0
2014-Sep-20 01:33N 59°20' E 018°05'0 0.0
2014-Sep-20 00:33N 59°20' E 018°05'0 0.0
2014-Sep-19 23:33N 59°20' E 018°05'0 0.0
2014-Sep-19 22:33N 59°20' E 018°05'0 0.0
2014-Sep-19 21:33N 59°20' E 018°05'0 0.0
2014-Sep-19 20:33N 59°20' E 018°05'0 0.1
2014-Sep-19 15:33N 59°20' E 018°05'0 0.4
2014-Sep-19 14:33N 59°20' E 018°05'0 0.0
2014-Sep-19 13:33N 59°20' E 018°05'0 0.0
2014-Sep-19 12:33N 59°20' E 018°05'0 0.0
2014-Sep-19 11:34N 59°20' E 018°05'0 0.0
2014-Sep-19 10:33N 59°20' E 018°05'0 0.0
2014-Sep-19 09:34N 59°20' E 018°05'0 0.0
2014-Sep-19 08:34N 59°20' E 018°05'1 0.6
2014-Sep-19 06:33N 59°19' E 018°07'1 1.3
2014-Sep-19 05:34N 59°20' E 018°05'0 0.0
2014-Sep-19 04:34N 59°20' E 018°05'0 0.0
2014-Sep-19 03:33N 59°20' E 018°05'0 0.0
2014-Sep-19 02:33N 59°20' E 018°05'0 0.0
2014-Sep-19 01:34N 59°20' E 018°05'0 0.0
2014-Sep-19 00:33N 59°20' E 018°05'0 0.0
2014-Sep-18 23:33N 59°20' E 018°05'0 0.0
2014-Sep-18 22:34N 59°20' E 018°05'0 0.0
2014-Sep-18 21:33N 59°20' E 018°05'0 0.0
2014-Sep-18 20:34N 59°20' E 018°05'0 0.0
2014-Sep-18 19:33N 59°20' E 018°05'0 0.0
2014-Sep-18 18:34N 59°20' E 018°05'0 0.0
2014-Sep-18 17:33N 59°20' E 018°05'0 0.0
2014-Sep-18 16:33N 59°20' E 018°05'0 0.0
2014-Sep-18 15:33N 59°20' E 018°05'0 0.0
2014-Sep-18 14:34N 59°20' E 018°05'0 0.0
2014-Sep-18 13:33N 59°20' E 018°05'0 0.0
2014-Sep-18 12:34N 59°20' E 018°05'0 0.0
2014-Sep-18 11:28N 59°20' E 018°05'0 0.0
2014-Sep-18 10:34N 59°20' E 018°05'0 0.0
2014-Sep-18 09:34N 59°20' E 018°05'0 0.0
2014-Sep-18 08:33N 59°20' E 018°05'1 0.6
2014-Sep-18 06:24N 59°19' E 018°07'1 1.5
2014-Sep-18 05:33N 59°20' E 018°05'0 0.0
2014-Sep-18 04:33N 59°20' E 018°05'0 0.0
2014-Sep-18 03:34N 59°20' E 018°05'0 0.0
2014-Sep-18 02:33N 59°20' E 018°05'0 0.0
2014-Sep-18 01:34N 59°20' E 018°05'0 0.0
2014-Sep-18 00:34N 59°20' E 018°05'0 0.0
2014-Sep-17 23:34N 59°20' E 018°05'0 0.0
2014-Sep-17 22:34N 59°20' E 018°05'0 0.0
2014-Sep-17 21:33N 59°20' E 018°05'0 0.0
2014-Sep-17 20:33N 59°20' E 018°05'0 0.0
2014-Sep-17 19:33N 59°20' E 018°05'0 0.0
2014-Sep-17 18:34N 59°20' E 018°05'0 0.0
2014-Sep-17 17:34N 59°20' E 018°05'0 0.0
2014-Sep-17 16:33N 59°20' E 018°05'0 0.0
2014-Sep-17 15:33N 59°20' E 018°05'0 0.0
2014-Sep-17 14:33N 59°20' E 018°05'0 0.0
2014-Sep-17 13:33N 59°20' E 018°05'0 0.0
2014-Sep-17 12:32N 59°20' E 018°05'0 0.0
2014-Sep-17 11:33N 59°20' E 018°05'0 0.0
2014-Sep-17 10:34N 59°20' E 018°05'0 0.0
2014-Sep-17 09:33N 59°20' E 018°05'0 0.0
2014-Sep-17 08:33N 59°20' E 018°05'0 0.0
2014-Sep-17 07:32N 59°20' E 018°05'0 0.0
2014-Sep-17 06:33N 59°20' E 018°05'0 0.0
2014-Sep-17 05:34N 59°20' E 018°05'0 0.0
2014-Sep-17 04:33N 59°20' E 018°05'0 0.0
2014-Sep-17 03:34N 59°20' E 018°05'0 0.0
2014-Sep-17 02:33N 59°20' E 018°05'0 0.0
2014-Sep-17 01:33N 59°20' E 018°05'0 0.0
2014-Sep-17 00:33N 59°20' E 018°05'0 0.0
2014-Sep-16 23:34N 59°20' E 018°05'0 0.0
2014-Sep-16 22:33N 59°20' E 018°05'0 0.0
2014-Sep-16 21:33N 59°20' E 018°05'0 0.0
2014-Sep-16 20:34N 59°20' E 018°05'0 0.0
2014-Sep-16 19:33N 59°20' E 018°05'0 0.0
2014-Sep-16 18:33N 59°20' E 018°05'0 0.0
2014-Sep-16 17:34N 59°20' E 018°05'0 0.0
2014-Sep-16 16:33N 59°20' E 018°05'0 0.0
2014-Sep-16 15:34N 59°20' E 018°05'0 0.0
2014-Sep-16 14:30N 59°20' E 018°05'0 0.0
2014-Sep-16 13:33N 59°20' E 018°05'0 0.0
2014-Sep-16 12:32N 59°20' E 018°05'0 0.0
2014-Sep-16 11:33N 59°20' E 018°05'0 0.0
2014-Sep-16 10:33N 59°20' E 018°05'0 0.0
2014-Sep-16 09:24N 59°20' E 018°05'0 0.0
2014-Sep-16 08:33N 59°20' E 018°05'0 0.0
2014-Sep-16 07:34N 59°20' E 018°05'0 0.0
2014-Sep-16 06:33N 59°20' E 018°05'0 0.0
2014-Sep-16 05:33N 59°20' E 018°05'0 0.0
2014-Sep-16 04:33N 59°20' E 018°05'0 0.0
2014-Sep-16 03:33N 59°20' E 018°05'0 0.0
2014-Sep-16 02:34N 59°20' E 018°05'0 0.0
2014-Sep-16 01:33N 59°20' E 018°05'0 0.0
2014-Sep-16 00:33N 59°20' E 018°05'0 0.0
2014-Sep-15 23:33N 59°20' E 018°05'0 0.0
2014-Sep-15 22:34N 59°20' E 018°05'0 0.0
2014-Sep-15 21:33N 59°20' E 018°05'0 0.0
2014-Sep-15 20:34N 59°20' E 018°05'0 0.0
2014-Sep-15 19:33N 59°20' E 018°05'0 0.0
2014-Sep-15 18:33N 59°20' E 018°05'0 0.0
2014-Sep-15 17:34N 59°20' E 018°05'0 0.0
2014-Sep-15 16:34N 59°20' E 018°05'0 0.0
2014-Sep-15 15:34N 59°20' E 018°05'0 0.0
2014-Sep-15 14:33N 59°20' E 018°05'1 0.2
2014-Sep-15 07:10N 59°19' E 018°07'1 2.2
2014-Sep-15 06:34N 59°20' E 018°05'0 0.0
2014-Sep-15 05:33N 59°20' E 018°05'0 0.0
2014-Sep-15 04:34N 59°20' E 018°05'0 0.0
2014-Sep-15 03:34N 59°20' E 018°05'0 0.0
2014-Sep-15 02:33N 59°20' E 018°05'0 0.0
2014-Sep-15 01:34N 59°20' E 018°05'0 0.0
2014-Sep-15 00:34N 59°20' E 018°05'0 0.0
2014-Sep-14 23:33N 59°20' E 018°05'0 0.0
2014-Sep-14 22:34N 59°20' E 018°05'0 0.0
2014-Sep-14 21:33N 59°20' E 018°05'0 0.0
2014-Sep-14 20:34N 59°20' E 018°05'0 0.0
2014-Sep-14 19:33N 59°20' E 018°05'7 6.6
2014-Sep-14 18:31N 59°23' E 018°17'3 0.8
2014-Sep-14 14:22N 59°20' E 018°12'3 3.0
2014-Sep-14 13:32N 59°19' E 018°08'2 0.4
2014-Sep-14 08:22N 59°20' E 018°11'3 4.2
2014-Sep-14 07:33N 59°20' E 018°05'0 0.0
2014-Sep-14 06:33N 59°20' E 018°05'0 0.0
2014-Sep-14 05:33N 59°20' E 018°05'0 0.0
2014-Sep-14 04:33N 59°20' E 018°05'0 0.0
2014-Sep-14 03:33N 59°20' E 018°05'0 0.0
2014-Sep-14 02:33N 59°20' E 018°05'0 0.0
2014-Sep-14 01:33N 59°20' E 018°05'0 0.0
2014-Sep-13 21:33N 59°20' E 018°05'0 0.0
2014-Sep-13 20:33N 59°20' E 018°05'0 0.0
2014-Sep-13 19:33N 59°20' E 018°05'7 6.5
2014-Sep-13 18:30N 59°23' E 018°17'5 1.1
2014-Sep-13 14:18N 59°19' E 018°10'1 1.1
2014-Sep-13 13:29N 59°19' E 018°09'1 0.3
2014-Sep-13 08:22N 59°20' E 018°11'3 4.2
2014-Sep-13 07:33N 59°20' E 018°05'0 0.0
2014-Sep-13 06:33N 59°20' E 018°05'0 0.0
2014-Sep-13 05:33N 59°20' E 018°05'0 0.0
2014-Sep-13 04:34N 59°20' E 018°05'0 0.0
2014-Sep-13 03:34N 59°20' E 018°05'0 0.0
2014-Sep-13 02:34N 59°20' E 018°05'0 0.0
2014-Sep-13 01:34N 59°20' E 018°05'0 0.0
2014-Sep-13 00:34N 59°20' E 018°05'0 0.0
2014-Sep-12 23:34N 59°20' E 018°05'0 0.0
2014-Sep-12 22:33N 59°20' E 018°05'0 0.0
2014-Sep-12 21:33N 59°20' E 018°05'0 0.0
2014-Sep-12 20:34N 59°20' E 018°05'8 1.8
2014-Sep-12 16:08N 59°23' E 018°19'813.3
2014-Sep-12 15:33N 59°20' E 018°05'3 3.0
2014-Sep-12 14:33N 59°20' E 018°11'0 0.0
2014-Sep-12 10:21N 59°20' E 018°11'3 4.1
2014-Sep-12 09:33N 59°20' E 018°05'0 0.0
2014-Sep-12 08:33N 59°20' E 018°05'0 0.0
2014-Sep-12 07:33N 59°20' E 018°05'0 0.0
2014-Sep-12 06:33N 59°20' E 018°05'0 0.0
2014-Sep-12 05:33N 59°20' E 018°05'0 0.0
2014-Sep-12 04:33N 59°20' E 018°05'0 0.0
2014-Sep-12 03:33N 59°20' E 018°05'0 0.0
2014-Sep-12 02:33N 59°20' E 018°05'0 0.0
2014-Sep-12 01:33N 59°20' E 018°05'0 0.0
2014-Sep-12 00:33N 59°20' E 018°05'0 0.0
2014-Sep-11 23:33N 59°20' E 018°05'0 0.0
2014-Sep-11 22:33N 59°20' E 018°05'0 0.0
2014-Sep-11 21:33N 59°20' E 018°05'0 0.0
2014-Sep-11 20:33N 59°20' E 018°05'3 2.8
2014-Sep-11 19:33N 59°19' E 018°10'5 1.6
2014-Sep-11 16:06N 59°23' E 018°19'713.5
2014-Sep-11 15:33N 59°20' E 018°05'7 6.0
2014-Sep-11 14:22N 59°23' E 018°18'4 1.1
2014-Sep-11 10:23N 59°20' E 018°11'3 3.9
2014-Sep-11 09:30N 59°20' E 018°05'0 0.0
2014-Sep-11 08:32N 59°20' E 018°05'0 0.0
2014-Sep-11 07:31N 59°20' E 018°05'0 0.0
2014-Sep-11 06:33N 59°20' E 018°05'0 0.0
2014-Sep-11 05:33N 59°20' E 018°05'0 0.0
2014-Sep-11 04:33N 59°20' E 018°05'0 0.0
2014-Sep-11 03:34N 59°20' E 018°05'0 0.0
2014-Sep-11 02:33N 59°20' E 018°05'0 0.0
2014-Sep-11 01:34N 59°20' E 018°05'0 0.0
2014-Sep-11 00:34N 59°20' E 018°05'0 0.0
2014-Sep-10 23:33N 59°20' E 018°05'0 0.0
2014-Sep-10 22:33N 59°20' E 018°05'0 0.0
2014-Sep-10 21:33N 59°20' E 018°05'  

Dump ship's entire track history